Time;durP1;ratioP1;P1;durP2;ratioP2;P2;SDS_P1;SDS_P2;PMS_P1;PMS_P2;Temp;Humidity;BMP_temperature;BMP_pressure;BME280_temperature;BME280_humidity;BME280_pressure;Samples;Min_cycle;Max_cycle;Signal;HPM_P1;HPM_P2
2022/12/27 00:01:12;;;;;;;9.67;1.53;;;5.80;99.90;;;;;;5022069;28;20691;-66
2022/12/27 00:03:38;;;;;;;7.27;1.40;;;5.70;99.90;;;;;;5030762;28;20221;-67
2022/12/27 00:06:13;;;;;;;5.97;1.57;;;5.60;99.90;;;;;;5021563;28;20203;-67
2022/12/27 00:08:39;;;;;;;8.57;1.70;;;5.50;99.90;;;;;;5015296;28;20940;-64
2022/12/27 00:11:07;;;;;;;8.17;1.60;;;5.50;99.90;;;;;;5015691;28;20202;-67
2022/12/27 00:13:32;;;;;;;5.90;2.03;;;5.50;99.90;;;;;;5016038;28;20208;-68
2022/12/27 00:16:03;;;;;;;8.60;2.17;;;5.40;99.90;;;;;;5021872;28;20198;-67
2022/12/27 00:18:29;;;;;;;3.90;1.33;;;5.30;99.90;;;;;;5028377;28;20698;-67
2022/12/27 00:20:58;;;;;;;4.00;1.53;;;5.30;99.90;;;;;;5024609;28;20203;-67
2022/12/27 00:23:24;;;;;;;5.43;1.77;;;5.20;99.90;;;;;;5016906;28;20197;-66
2022/12/27 00:25:50;;;;;;;6.60;1.83;;;5.20;99.90;;;;;;5013537;28;20688;-66
2022/12/27 00:28:16;;;;;;;7.40;1.30;;;5.20;99.90;;;;;;5023564;28;20255;-67
2022/12/27 00:30:42;;;;;;;4.43;1.73;;;5.20;99.90;;;;;;5029632;28;20315;-65
2022/12/27 00:33:07;;;;;;;9.87;2.00;;;5.30;99.90;;;;;;5028305;28;20752;-70
2022/12/27 00:35:33;;;;;;;9.13;1.90;;;5.30;99.90;;;;;;5024080;28;20191;-70
2022/12/27 00:37:58;;;;;;;9.30;1.97;;;5.30;99.90;;;;;;5022712;28;20218;-67
2022/12/27 00:40:24;;;;;;;10.27;1.80;;;5.20;99.90;;;;;;5028744;28;20195;-68
2022/12/27 00:42:49;;;;;;;8.33;2.03;;;5.10;99.90;;;;;;5026633;28;20195;-65
2022/12/27 00:45:15;;;;;;;5.63;1.53;;;5.10;99.90;;;;;;5028748;28;20620;-65
2022/12/27 00:47:40;;;;;;;7.80;1.80;;;5.00;99.90;;;;;;5023012;28;20621;-66
2022/12/27 00:50:06;;;;;;;6.07;2.33;;;4.90;99.90;;;;;;5020205;28;20199;-70
2022/12/27 00:52:32;;;;;;;6.00;2.10;;;4.90;99.90;;;;;;5021682;28;20219;-65
2022/12/27 00:54:57;;;;;;;7.20;1.53;;;4.80;99.90;;;;;;5023408;28;20209;-69
2022/12/27 00:57:23;;;;;;;10.63;1.57;;;4.70;99.90;;;;;;5024382;28;20210;-67
2022/12/27 00:59:48;;;;;;;7.47;2.03;;;4.70;99.90;;;;;;5027788;28;20206;-70
2022/12/27 01:02:14;;;;;;;6.10;1.83;;;4.70;99.90;;;;;;5029414;28;20199;-66
2022/12/27 01:04:39;;;;;;;4.83;1.87;;;4.70;99.90;;;;;;5021973;28;20218;-64
2022/12/27 01:07:05;;;;;;;6.10;1.67;;;4.60;99.90;;;;;;5019482;28;20234;-67
2022/12/27 01:09:30;;;;;;;8.43;2.07;;;4.60;99.90;;;;;;5028689;28;20751;-66
2022/12/27 01:11:56;;;;;;;7.33;1.57;;;4.50;99.90;;;;;;5021221;28;20314;-65
2022/12/27 01:14:21;;;;;;;6.70;1.73;;;4.50;99.90;;;;;;5037341;28;20244;-67
2022/12/27 01:16:47;;;;;;;7.13;1.40;;;4.50;99.90;;;;;;5036289;28;20675;-69
2022/12/27 01:19:13;;;;;;;11.00;1.80;;;4.50;99.90;;;;;;5031847;28;20195;-66
2022/12/27 01:21:39;;;;;;;9.33;1.90;;;4.50;99.90;;;;;;5017306;28;20215;-67
2022/12/27 01:24:05;;;;;;;4.57;1.10;;;4.50;99.90;;;;;;5032496;28;20284;-67
2022/12/27 01:26:31;;;;;;;10.00;2.50;;;4.50;99.90;;;;;;5025613;28;20201;-65
2022/12/27 01:28:57;;;;;;;8.00;2.03;;;4.40;99.90;;;;;;5030086;28;20695;-66
2022/12/27 01:31:29;;;;;;;8.57;1.67;;;4.40;99.90;;;;;;5033605;28;20190;-70
2022/12/27 01:33:57;;;;;;;7.10;1.87;;;4.30;99.90;;;;;;5032021;28;20217;-68
2022/12/27 01:36:24;;;;;;;6.93;1.67;;;4.30;99.90;;;;;;5035912;28;20199;-67
2022/12/27 01:38:50;;;;;;;6.77;1.70;;;4.30;99.90;;;;;;5024804;28;20195;-67
2022/12/27 01:44:42;;;;;;;10.50;2.17;;;4.20;99.90;;;;;;5028225;28;20214;-66
2022/12/27 01:47:19;;;;;;;3.90;1.57;;;4.20;99.90;;;;;;5017740;28;20210;-67
2022/12/27 01:49:54;;;;;;;14.00;2.60;;;4.20;99.90;;;;;;5019894;28;20686;-67
2022/12/27 01:52:22;;;;;;;8.40;2.07;;;4.20;99.90;;;;;;5031257;28;20213;-68
2022/12/27 01:54:47;;;;;;;4.57;1.97;;;4.10;99.90;;;;;;5021829;28;20237;-67
2022/12/27 01:57:13;;;;;;;10.80;2.17;;;4.10;99.90;;;;;;5021804;28;20210;-63
2022/12/27 01:59:39;;;;;;;7.63;1.30;;;4.10;99.90;;;;;;5032815;28;20191;-61
2022/12/27 02:02:05;;;;;;;9.40;1.53;;;4.00;99.90;;;;;;5028554;28;20210;-63
2022/12/27 02:04:31;;;;;;;6.20;2.37;;;4.10;99.90;;;;;;5038002;28;20210;-61
2022/12/27 02:06:58;;;;;;;10.00;3.00;;;4.10;99.90;;;;;;5037919;28;20286;-61
2022/12/27 02:09:41;;;;;;;7.93;2.07;;;4.00;99.90;;;;;;5023234;28;21011;-61
2022/12/27 02:12:10;;;;;;;9.77;2.27;;;4.00;99.90;;;;;;5032036;28;20232;-62
2022/12/27 02:14:38;;;;;;;6.27;1.63;;;4.00;99.90;;;;;;5026359;28;20199;-62
2022/12/27 02:17:20;;;;;;;5.80;2.40;;;3.90;99.90;;;;;;5037406;28;20216;-62
2022/12/27 02:20:08;;;;;;;10.57;1.80;;;3.90;99.90;;;;;;5027177;28;20372;-62
2022/12/27 02:26:31;;;;;;;8.43;2.93;;;3.80;99.90;;;;;;5030131;28;20222;-62
2022/12/27 02:29:24;;;;;;;5.30;1.97;;;3.80;99.90;;;;;;5028318;28;20213;-61
2022/12/27 02:32:23;;;;;;;6.57;2.00;;;3.70;99.90;;;;;;5031421;28;20959;-60
2022/12/27 02:35:11;;;;;;;4.93;1.73;;;3.70;99.90;;;;;;5016403;28;20203;-62
2022/12/27 02:37:43;;;;;;;9.27;2.07;;;3.70;99.90;;;;;;5031720;28;20276;-61
2022/12/27 02:54:35;;;;;;;6.80;1.53;;;3.50;99.90;;;;;;5037942;28;20220;-61
2022/12/27 02:57:21;;;;;;;6.13;2.20;;;3.50;99.90;;;;;;5034968;28;20298;-61
2022/12/27 03:03:25;;;;;;;6.90;2.20;;;3.50;99.90;;;;;;5037404;28;20284;-61
2022/12/27 03:15:53;;;;;;;9.23;2.27;;;3.50;99.90;;;;;;5036393;28;20689;-60
2022/12/27 03:18:18;;;;;;;11.13;2.27;;;3.60;99.90;;;;;;5037626;28;20897;-59
2022/12/27 03:26:21;;;;;;;4.47;1.80;;;3.60;99.90;;;;;;5008021;28;20221;-59
2022/12/27 03:34:34;;;;;;;5.03;1.33;;;3.60;99.90;;;;;;5028717;28;20213;-61
2022/12/27 03:40:03;;;;;;;4.10;1.93;;;3.50;99.90;;;;;;5026668;28;20691;-61
2022/12/27 03:49:20;;;;;;;7.10;1.70;;;3.50;99.90;;;;;;4990826;28;20258;-61
2022/12/27 03:52:07;;;;;;;6.10;1.83;;;3.50;99.90;;;;;;5023147;28;20242;-61
2022/12/27 03:54:38;;;;;;;3.73;1.67;;;3.50;99.90;;;;;;5034066;28;20308;-61
2022/12/27 03:57:10;;;;;;;3.33;1.77;;;3.50;99.90;;;;;;5031096;28;20207;-62
2022/12/27 03:59:37;;;;;;;5.33;1.60;;;3.50;99.90;;;;;;5026978;28;20229;-61
2022/12/27 04:02:03;;;;;;;7.23;1.70;;;3.50;99.90;;;;;;5026656;28;20591;-60
2022/12/27 04:04:28;;;;;;;6.53;2.17;;;3.50;99.90;;;;;;5025732;28;20289;-60
2022/12/27 04:06:54;;;;;;;6.17;2.20;;;3.50;99.90;;;;;;5026665;28;20222;-60
2022/12/27 04:36:43;;;;;;;7.37;2.73;;;3.50;99.90;;;;;;5033127;28;20339;-59
2022/12/27 04:39:08;;;;;;;7.73;2.07;;;3.50;99.90;;;;;;5024828;28;20282;-60
2022/12/27 04:55:26;;;;;;;10.00;2.80;;;3.60;99.90;;;;;;5023696;28;20774;-59
2022/12/27 04:57:51;;;;;;;4.07;2.20;;;3.70;99.90;;;;;;5030061;28;20651;-60
2022/12/27 05:03:07;;;;;;;5.63;1.90;;;3.80;99.90;;;;;;5024487;28;20201;-60
2022/12/27 05:05:34;;;;;;;4.03;2.57;;;3.80;99.90;;;;;;5022087;28;20203;-59
2022/12/27 05:16:13;;;;;;;5.47;2.00;;;3.70;99.90;;;;;;5035559;28;20210;-61
2022/12/27 05:18:38;;;;;;;4.43;2.27;;;3.70;99.90;;;;;;5035828;28;20324;-60
2022/12/27 05:21:05;;;;;;;3.17;1.67;;;3.70;99.90;;;;;;5012529;28;21008;-61
2022/12/27 05:26:22;;;;;;;6.47;2.23;;;3.80;99.90;;;;;;5019769;28;20256;-60
2022/12/27 05:28:50;;;;;;;6.93;1.77;;;3.80;99.90;;;;;;5025014;28;20222;-60
2022/12/27 05:31:15;;;;;;;5.47;1.73;;;3.90;99.90;;;;;;5027392;28;20252;-59
2022/12/27 05:33:41;;;;;;;3.57;2.20;;;3.90;99.90;;;;;;5029895;28;20709;-60
2022/12/27 05:36:07;;;;;;;7.20;2.27;;;4.00;99.90;;;;;;5027536;28;20233;-59
2022/12/27 05:38:32;;;;;;;13.00;2.27;;;4.00;99.90;;;;;;5027044;28;20199;-59
2022/12/27 05:40:59;;;;;;;5.40;1.83;;;4.00;99.90;;;;;;5028261;28;20198;-59
2022/12/27 05:43:26;;;;;;;4.17;1.60;;;4.00;99.90;;;;;;5028814;28;20696;-59
2022/12/27 05:45:52;;;;;;;5.67;1.90;;;4.10;99.90;;;;;;5032707;28;20219;-60
2022/12/27 05:48:17;;;;;;;9.03;2.10;;;4.10;99.90;;;;;;5025835;28;20195;-59
2022/12/27 05:50:43;;;;;;;5.60;2.20;;;4.00;99.90;;;;;;5035247;28;20199;-59
2022/12/27 05:53:09;;;;;;;3.07;1.33;;;4.00;99.90;;;;;;5029959;28;20691;-59
2022/12/27 05:55:34;;;;;;;5.07;2.00;;;3.90;99.90;;;;;;5032073;28;20202;-59
2022/12/27 05:58:00;;;;;;;8.93;2.47;;;4.00;99.90;;;;;;5026979;28;20215;-60
2022/12/27 06:00:25;;;;;;;3.50;2.30;;;3.90;99.90;;;;;;5029431;28;20244;-59
2022/12/27 06:02:51;;;;;;;5.03;2.07;;;4.00;99.90;;;;;;5027502;28;20613;-61
2022/12/27 06:05:16;;;;;;;3.43;1.53;;;3.90;99.90;;;;;;5028815;28;20195;-59
2022/12/27 06:07:42;;;;;;;5.17;1.80;;;3.90;99.90;;;;;;5028845;28;20202;-59
2022/12/27 06:10:10;;;;;;;10.90;2.47;;;3.90;99.90;;;;;;5028395;28;20199;-58
2022/12/27 06:12:36;;;;;;;8.07;1.57;;;3.90;99.90;;;;;;5028860;28;20284;-58
2022/12/27 06:15:03;;;;;;;4.13;1.83;;;3.90;99.90;;;;;;5028540;28;20542;-58
2022/12/27 06:17:29;;;;;;;5.27;1.57;;;3.90;99.90;;;;;;5024718;28;20211;-58
2022/12/27 06:19:55;;;;;;;7.50;2.20;;;3.90;99.90;;;;;;5029199;28;20195;-59
2022/12/27 06:22:20;;;;;;;4.43;2.10;;;3.90;99.90;;;;;;5028900;28;20305;-59
2022/12/27 06:24:46;;;;;;;2.97;1.47;;;3.90;99.90;;;;;;5028890;28;20231;-60
2022/12/27 06:27:11;;;;;;;6.00;1.30;;;3.90;99.90;;;;;;5029324;28;20210;-59
2022/12/27 06:29:36;;;;;;;7.47;2.37;;;3.90;99.90;;;;;;5029009;28;20195;-61
2022/12/27 06:32:02;;;;;;;10.97;2.13;;;3.80;99.90;;;;;;5025508;28;20203;-60
2022/12/27 06:34:28;;;;;;;6.67;2.40;;;3.80;99.90;;;;;;5034010;28;20202;-59
2022/12/27 06:36:53;;;;;;;2.93;1.57;;;3.80;99.90;;;;;;5036458;28;20234;-60
2022/12/27 06:39:19;;;;;;;4.83;1.47;;;3.80;99.90;;;;;;5037751;28;20206;-61
2022/12/27 06:41:44;;;;;;;4.57;2.27;;;3.80;99.90;;;;;;5037984;28;20207;-60
2022/12/27 06:44:10;;;;;;;2.53;1.90;;;3.90;99.90;;;;;;5037522;28;20205;-60
2022/12/27 06:46:35;;;;;;;9.33;2.00;;;3.90;99.90;;;;;;5036275;28;20280;-60
2022/12/27 06:49:01;;;;;;;6.37;2.07;;;4.00;99.90;;;;;;5038098;28;20198;-62
2022/12/27 06:51:27;;;;;;;3.00;2.03;;;4.00;99.90;;;;;;5037908;28;20686;-61
2022/12/27 06:53:52;;;;;;;7.13;1.83;;;4.00;99.90;;;;;;5036955;28;20214;-60
2022/12/27 06:56:20;;;;;;;9.33;1.60;;;4.00;99.90;;;;;;5033842;28;20334;-61
2022/12/27 06:58:47;;;;;;;2.67;2.10;;;4.00;99.90;;;;;;5035746;28;20211;-58
2022/12/27 07:01:14;;;;;;;2.73;1.53;;;4.00;99.90;;;;;;5037599;28;20225;-60
2022/12/27 07:03:40;;;;;;;13.47;1.83;;;4.00;99.90;;;;;;5037127;28;20216;-60
2022/12/27 07:06:08;;;;;;;2.67;1.40;;;3.90;99.90;;;;;;5037603;28;20209;-60
2022/12/27 07:08:35;;;;;;;3.23;2.13;;;3.90;99.90;;;;;;5037126;28;20205;-60
2022/12/27 07:11:09;;;;;;;5.93;1.60;;;3.90;99.90;;;;;;5030803;28;20210;-59
2022/12/27 07:13:44;;;;;;;5.53;1.47;;;4.00;99.90;;;;;;5025097;28;20661;-60
2022/12/27 07:16:13;;;;;;;6.73;1.83;;;4.00;99.90;;;;;;5026608;28;20694;-60
2022/12/27 07:18:39;;;;;;;4.50;2.27;;;4.00;99.90;;;;;;5025844;28;20694;-60
2022/12/27 07:21:07;;;;;;;2.40;2.13;;;4.10;99.90;;;;;;5027858;28;20218;-60
2022/12/27 07:23:33;;;;;;;3.63;1.97;;;4.10;99.90;;;;;;5032462;28;20197;-60
2022/12/27 07:26:06;;;;;;;6.37;1.80;;;4.10;99.90;;;;;;5037559;28;20234;-60
2022/12/27 07:28:31;;;;;;;2.53;1.27;;;4.10;99.90;;;;;;5035893;28;20206;-59
2022/12/27 07:30:57;;;;;;;3.53;1.93;;;4.10;99.90;;;;;;5035389;28;21141;-60
2022/12/27 07:33:22;;;;;;;5.83;1.73;;;4.10;99.90;;;;;;5024796;28;20213;-60
2022/12/27 07:35:48;;;;;;;3.80;2.13;;;4.10;99.90;;;;;;5027195;28;20203;-59
2022/12/27 07:38:14;;;;;;;8.27;2.03;;;4.00;99.90;;;;;;5026653;28;20199;-59
2022/12/27 07:40:39;;;;;;;3.43;1.47;;;4.10;99.90;;;;;;5026313;28;20201;-60
2022/12/27 07:43:05;;;;;;;4.83;1.63;;;4.10;99.90;;;;;;5026799;28;20189;-60
2022/12/27 07:45:31;;;;;;;5.97;1.90;;;4.10;99.90;;;;;;5026086;28;20202;-60
2022/12/27 07:47:56;;;;;;;6.43;1.80;;;4.10;99.90;;;;;;5026754;28;20352;-60
2022/12/27 07:50:22;;;;;;;8.13;2.10;;;4.20;99.90;;;;;;5025887;28;20285;-60
2022/12/27 07:52:47;;;;;;;6.03;2.10;;;4.20;99.90;;;;;;5026545;28;20214;-60
2022/12/27 07:55:13;;;;;;;6.23;2.37;;;4.20;99.90;;;;;;5025723;28;20199;-61
2022/12/27 07:57:38;;;;;;;3.83;1.93;;;4.20;99.90;;;;;;5026896;28;20199;-61
2022/12/27 08:00:04;;;;;;;5.63;1.53;;;4.20;99.90;;;;;;5027061;28;20205;-61
2022/12/27 08:02:30;;;;;;;3.70;1.80;;;4.20;99.90;;;;;;5025788;28;20202;-60
2022/12/27 08:04:55;;;;;;;4.97;1.90;;;4.20;99.90;;;;;;5024431;28;20209;-60
2022/12/27 08:07:21;;;;;;;3.90;1.50;;;4.20;99.90;;;;;;5025734;28;20615;-60
2022/12/27 08:09:47;;;;;;;3.87;1.23;;;4.20;99.90;;;;;;5025764;28;20282;-61
2022/12/27 08:12:13;;;;;;;3.90;2.23;;;4.20;99.90;;;;;;5026385;28;20510;-61
2022/12/27 08:14:39;;;;;;;2.57;1.83;;;4.20;99.90;;;;;;5025910;28;20214;-61
2022/12/27 08:17:16;;;;;;;6.83;1.83;;;4.10;99.90;;;;;;5024484;28;20624;-61
2022/12/27 08:19:41;;;;;;;6.33;2.30;;;4.10;99.90;;;;;;5027035;28;20202;-61
2022/12/27 08:22:08;;;;;;;4.87;1.90;;;4.10;99.90;;;;;;5027316;28;20538;-61
2022/12/27 08:24:34;;;;;;;5.17;1.80;;;4.20;99.90;;;;;;5029123;28;20227;-61
2022/12/27 08:26:59;;;;;;;4.40;1.83;;;4.20;99.90;;;;;;5027110;28;20340;-62
2022/12/27 08:29:25;;;;;;;2.73;1.73;;;4.30;99.90;;;;;;5026209;28;20200;-61
2022/12/27 08:31:50;;;;;;;7.27;2.13;;;4.30;99.90;;;;;;5025605;28;20209;-61
2022/12/27 08:34:15;;;;;;;5.73;1.63;;;4.40;99.90;;;;;;5026376;28;20298;-61
2022/12/27 08:36:41;;;;;;;3.53;1.50;;;4.40;99.90;;;;;;5026076;28;20195;-61
2022/12/27 08:39:07;;;;;;;4.43;1.80;;;4.40;99.90;;;;;;5024560;28;20252;-58
2022/12/27 08:41:32;;;;;;;7.77;2.50;;;4.40;99.90;;;;;;5028417;28;20279;-59
2022/12/27 08:43:58;;;;;;;4.53;1.97;;;4.40;99.90;;;;;;5024709;28;20200;-59
2022/12/27 08:46:24;;;;;;;4.70;1.83;;;4.50;99.90;;;;;;5026513;28;20240;-60
2022/12/27 08:48:50;;;;;;;5.07;2.20;;;4.50;99.90;;;;;;5025406;28;20222;-61
2022/12/27 08:51:16;;;;;;;4.67;2.10;;;4.50;99.90;;;;;;5025677;28;20209;-60
2022/12/27 08:53:42;;;;;;;3.37;1.97;;;4.50;99.90;;;;;;5025886;28;20263;-60
2022/12/27 08:56:08;;;;;;;4.07;1.93;;;4.60;99.90;;;;;;5025908;28;20210;-60
2022/12/27 08:58:33;;;;;;;4.17;2.90;;;4.60;99.90;;;;;;5025836;28;20195;-61
2022/12/27 09:01:06;;;;;;;4.47;1.60;;;4.60;99.90;;;;;;5028889;28;20202;-62
2022/12/27 09:03:31;;;;;;;4.93;1.83;;;4.60;99.90;;;;;;5023322;28;20205;-62
2022/12/27 09:06:15;;;;;;;5.57;3.23;;;4.60;99.90;;;;;;5027707;28;20202;-62
2022/12/27 09:08:42;;;;;;;8.43;2.13;;;4.60;99.90;;;;;;5029523;28;20209;-62
2022/12/27 09:11:13;;;;;;;4.87;1.90;;;4.70;99.90;;;;;;5031137;28;20660;-61
2022/12/27 09:13:40;;;;;;;5.07;2.10;;;4.70;99.90;;;;;;5028978;28;20693;-61
2022/12/27 09:16:10;;;;;;;7.73;3.10;;;4.70;99.90;;;;;;5027497;28;20282;-61
2022/12/27 09:18:37;;;;;;;2.80;1.50;;;4.60;99.90;;;;;;5030415;28;20202;-61
2022/12/27 09:21:04;;;;;;;7.73;2.70;;;4.60;99.90;;;;;;5031701;28;20218;-60
2022/12/27 09:23:30;;;;;;;4.10;2.37;;;4.60;99.90;;;;;;5027757;28;20568;-60
2022/12/27 09:25:55;;;;;;;2.80;2.07;;;4.70;99.90;;;;;;5027743;28;20238;-61
2022/12/27 09:28:21;;;;;;;6.03;2.33;;;4.70;99.90;;;;;;5029513;28;20891;-60
2022/12/27 09:30:46;;;;;;;3.43;1.93;;;4.80;99.90;;;;;;5033209;28;20233;-60
2022/12/27 09:33:12;;;;;;;4.97;1.70;;;4.90;99.90;;;;;;5031147;28;20215;-61
2022/12/27 09:35:37;;;;;;;8.03;2.50;;;4.80;99.90;;;;;;5033843;28;20210;-60
2022/12/27 09:38:03;;;;;;;3.10;2.33;;;4.80;99.90;;;;;;5036202;28;20206;-60
2022/12/27 09:40:28;;;;;;;3.97;1.80;;;4.90;99.90;;;;;;5037285;28;20191;-61
2022/12/27 09:43:13;;;;;;;4.60;2.07;;;4.90;99.90;;;;;;5038739;28;20210;-62
2022/12/27 09:45:47;;;;;;;4.50;2.13;;;5.00;99.90;;;;;;5032303;28;20274;-60
2022/12/27 09:48:25;;;;;;;3.10;2.10;;;5.00;99.90;;;;;;5035991;28;20644;-60
2022/12/27 09:50:56;;;;;;;4.70;2.60;;;5.20;99.90;;;;;;5026752;28;20234;-61
2022/12/27 09:53:25;;;;;;;10.00;2.57;;;5.20;99.90;;;;;;5028987;28;20962;-61
2022/12/27 09:55:53;;;;;;;4.00;2.13;;;5.30;99.90;;;;;;5029052;28;20232;-62
2022/12/27 09:58:43;;;;;;;4.83;2.17;;;5.40;99.90;;;;;;5029122;28;20620;-62
2022/12/27 10:01:20;;;;;;;3.53;1.90;;;5.40;99.90;;;;;;5030527;28;20221;-62
2022/12/27 10:03:46;;;;;;;1.93;1.77;;;5.50;99.90;;;;;;5031930;28;20816;-61
2022/12/27 10:06:35;;;;;;;6.33;2.20;;;5.40;99.90;;;;;;5027447;28;20407;-61
2022/12/27 10:09:19;;;;;;;3.23;2.47;;;5.40;99.90;;;;;;5028039;28;20214;-62
2022/12/27 10:12:09;;;;;;;6.83;1.67;;;5.50;99.90;;;;;;5024772;28;20292;-69
2022/12/27 10:15:01;;;;;;;5.70;2.20;;;5.60;99.90;;;;;;5037431;28;20289;-67
2022/12/27 10:18:05;;;;;;;2.53;1.60;;;5.60;99.90;;;;;;5043807;28;20198;-66
2022/12/27 10:20:52;;;;;;;3.70;2.20;;;5.80;99.90;;;;;;5003734;28;20214;-65
2022/12/27 10:23:23;;;;;;;3.90;2.10;;;5.60;99.90;;;;;;5042276;28;20199;-65
2022/12/27 10:25:54;;;;;;;4.60;2.50;;;5.70;99.90;;;;;;5045354;28;20392;-65
2022/12/27 10:28:27;;;;;;;6.30;2.40;;;5.70;99.90;;;;;;5039499;28;20194;-65
2022/12/27 10:30:53;;;;;;;8.73;2.50;;;5.80;99.90;;;;;;5045575;28;21013;-64
2022/12/27 10:33:31;;;;;;;7.90;3.40;;;5.70;99.90;;;;;;5045440;28;20841;-66
2022/12/27 10:35:57;;;;;;;4.83;2.83;;;5.80;99.90;;;;;;5041305;28;20233;-65
2022/12/27 10:38:24;;;;;;;4.57;2.47;;;5.80;99.90;;;;;;5046493;28;20221;-65
2022/12/27 10:41:14;;;;;;;6.90;2.27;;;5.90;99.90;;;;;;5044916;28;20186;-66
2022/12/27 10:43:41;;;;;;;10.33;2.87;;;6.00;99.90;;;;;;5040014;28;20694;-66
2022/12/27 10:46:16;;;;;;;6.77;2.30;;;6.10;99.90;;;;;;5038467;28;20194;-65
2022/12/27 10:49:19;;;;;;;6.13;2.90;;;6.00;99.90;;;;;;5043221;28;20212;-66
2022/12/27 10:51:45;;;;;;;4.17;2.13;;;6.10;99.90;;;;;;5041360;28;20676;-65
2022/12/27 10:54:19;;;;;;;4.73;2.33;;;6.00;99.90;;;;;;5035433;28;20218;-63
2022/12/27 10:56:44;;;;;;;8.40;2.73;;;6.00;99.90;;;;;;5036102;28;20198;-65
2022/12/27 10:59:16;;;;;;;4.47;2.70;;;6.00;99.90;;;;;;5038388;28;20244;-64
2022/12/27 11:01:43;;;;;;;5.60;2.50;;;6.00;99.90;;;;;;5037403;28;20281;-64
2022/12/27 11:04:12;;;;;;;2.97;2.63;;;6.00;99.90;;;;;;5042098;28;20281;-65
2022/12/27 11:06:39;;;;;;;4.10;2.27;;;5.90;99.90;;;;;;5036992;28;20301;-65
2022/12/27 11:09:34;;;;;;;8.27;2.27;;;6.00;99.90;;;;;;5036385;28;20234;-65
2022/12/27 11:12:13;;;;;;;5.63;2.27;;;6.10;99.90;;;;;;5040703;28;20714;-65
2022/12/27 11:14:52;;;;;;;5.93;2.60;;;6.10;99.90;;;;;;5028382;28;20199;-66
2022/12/27 11:17:20;;;;;;;4.87;3.10;;;6.10;99.90;;;;;;5036036;28;20195;-69
2022/12/27 11:19:46;;;;;;;5.13;3.40;;;6.10;99.90;;;;;;5029395;28;20198;-70
2022/12/27 11:22:12;;;;;;;7.80;2.73;;;6.10;99.90;;;;;;5034856;28;20203;-69
2022/12/27 11:24:47;;;;;;;2.93;1.73;;;6.10;99.90;;;;;;5037024;28;20225;-67
2022/12/27 11:27:25;;;;;;;6.10;2.67;;;6.00;99.90;;;;;;5037064;28;20224;-67
2022/12/27 11:29:54;;;;;;;6.83;2.40;;;6.10;99.90;;;;;;5036571;28;20202;-70
2022/12/27 11:32:22;;;;;;;7.20;3.33;;;6.10;99.90;;;;;;5037133;28;20218;-69
2022/12/27 11:34:51;;;;;;;5.50;2.90;;;6.00;99.90;;;;;;5036106;28;20222;-69
2022/12/27 11:37:20;;;;;;;7.23;3.27;;;6.10;99.90;;;;;;5025760;28;20688;-72
2022/12/27 11:39:50;;;;;;;4.70;3.00;;;6.20;99.90;;;;;;5026350;28;20252;-71
2022/12/27 11:42:31;;;;;;;4.57;2.70;;;6.50;99.90;;;;;;5026249;28;20196;-70
2022/12/27 11:45:10;;;;;;;5.13;2.10;;;7.00;99.90;;;;;;5023025;28;20195;-72
2022/12/27 11:47:53;;;;;;;4.17;2.30;;;6.90;99.90;;;;;;5026041;28;20211;-71
2022/12/27 11:50:50;;;;;;;3.80;2.93;;;6.80;99.90;;;;;;5026142;28;20281;-72
2022/12/27 11:53:50;;;;;;;4.67;2.63;;;6.60;99.90;;;;;;5021906;28;20269;-72
2022/12/27 11:56:23;;;;;;;5.73;2.30;;;6.50;99.90;;;;;;5036400;28;20321;-74
2022/12/27 11:58:49;;;;;;;7.87;2.63;;;6.70;99.90;;;;;;5037326;28;20996;-70
2022/12/27 12:01:27;;;;;;;5.93;3.30;;;6.90;99.90;;;;;;5026886;28;20206;-67
2022/12/27 12:04:29;;;;;;;4.43;2.10;;;6.40;99.90;;;;;;5027418;28;20183;-66
2022/12/27 12:07:21;;;;;;;2.60;2.40;;;6.30;99.90;;;;;;5035705;28;20505;-67
2022/12/27 12:09:52;;;;;;;3.67;2.73;;;6.20;99.90;;;;;;5031966;28;20214;-66
2022/12/27 12:12:44;;;;;;;4.73;2.70;;;6.20;99.90;;;;;;5036350;28;20213;-67
2022/12/27 12:15:35;;;;;;;7.73;2.90;;;6.20;99.90;;;;;;5043185;28;20202;-65
2022/12/27 12:18:29;;;;;;;6.70;2.47;;;6.30;99.90;;;;;;5022836;28;20252;-66
2022/12/27 12:21:32;;;;;;;5.10;2.73;;;6.30;99.90;;;;;;5030016;28;20727;-68
2022/12/27 12:24:17;;;;;;;5.83;1.97;;;6.30;99.90;;;;;;5025686;28;20237;-67
2022/12/27 12:27:09;;;;;;;6.23;3.00;;;6.40;99.90;;;;;;5020880;28;20203;-66
2022/12/27 12:30:26;;;;;;;5.90;3.23;;;6.30;99.90;;;;;;5024186;28;20673;-66
2022/12/27 12:33:01;;;;;;;6.90;2.30;;;6.30;99.90;;;;;;5021014;28;20222;-65
2022/12/27 12:35:52;;;;;;;7.53;3.10;;;6.50;99.90;;;;;;5034313;28;20240;-66
2022/12/27 12:38:24;;;;;;;5.50;3.30;;;6.60;99.90;;;;;;5029964;28;20568;-66
2022/12/27 12:41:30;;;;;;;5.90;2.63;;;6.80;99.90;;;;;;5031928;28;20202;-68
2022/12/27 12:44:27;;;;;;;5.27;2.40;;;6.90;99.90;;;;;;5024490;28;20211;-67
2022/12/27 12:47:00;;;;;;;4.27;2.53;;;7.00;99.90;;;;;;5024568;28;20206;-65
2022/12/27 12:49:54;;;;;;;6.37;2.70;;;7.30;99.90;;;;;;5020876;28;20570;-67
2022/12/27 12:52:47;;;;;;;3.97;2.23;;;7.60;99.90;;;;;;5017538;28;20207;-69
2022/12/27 12:55:52;;;;;;;3.87;2.53;;;7.70;99.90;;;;;;5023984;28;20617;-69
2022/12/27 12:58:40;;;;;;;5.27;2.70;;;7.70;99.90;;;;;;5022518;28;20222;-69
2022/12/27 13:01:30;;;;;;;7.27;2.97;;;7.70;99.90;;;;;;5025723;28;20682;-68
2022/12/27 13:04:19;;;;;;;9.57;3.57;;;7.40;99.90;;;;;;5024416;28;20206;-68
2022/12/27 13:07:11;;;;;;;9.03;3.60;;;7.20;99.90;;;;;;5030651;28;20238;-68
2022/12/27 13:09:52;;;;;;;6.20;2.80;;;7.20;99.90;;;;;;5033038;28;20219;-67
2022/12/27 13:12:23;;;;;;;4.63;2.97;;;7.10;99.90;;;;;;5030875;28;20231;-67
2022/12/27 13:15:20;;;;;;;6.07;2.80;;;7.10;99.90;;;;;;5025635;28;20187;-68
2022/12/27 13:18:03;;;;;;;3.53;2.53;;;7.00;99.90;;;;;;5024118;28;20207;-67
2022/12/27 13:20:52;;;;;;;5.53;2.47;;;6.90;99.90;;;;;;5026252;28;20236;-67
2022/12/27 13:23:51;;;;;;;6.77;2.00;;;6.80;99.90;;;;;;5031146;28;20297;-66
2022/12/27 13:26:33;;;;;;;10.80;3.17;;;6.70;99.90;;;;;;5023220;28;20587;-66
2022/12/27 13:29:28;;;;;;;6.27;3.03;;;6.80;99.90;;;;;;5025608;28;20211;-66
2022/12/27 13:32:30;;;;;;;3.17;2.77;;;6.70;99.90;;;;;;5022242;28;20216;-68
2022/12/27 13:35:34;;;;;;;11.87;2.93;;;6.70;99.90;;;;;;5036455;28;20203;-67
2022/12/27 13:38:37;;;;;;;8.43;2.80;;;6.70;99.90;;;;;;5016712;28;20202;-69
2022/12/27 13:41:24;;;;;;;4.23;2.37;;;6.70;99.90;;;;;;5036413;28;20228;-68
2022/12/27 13:44:01;;;;;;;4.40;2.10;;;6.70;99.90;;;;;;5038056;28;20198;-69
2022/12/27 13:46:47;;;;;;;6.17;2.47;;;6.60;99.90;;;;;;5040380;28;20194;-68
2022/12/27 13:49:35;;;;;;;6.93;2.47;;;6.70;99.90;;;;;;5039700;28;20206;-68
2022/12/27 13:52:28;;;;;;;4.73;2.10;;;6.60;99.90;;;;;;5031619;28;20199;-68
2022/12/27 13:55:10;;;;;;;8.33;2.80;;;6.60;99.90;;;;;;5042403;28;20251;-66
2022/12/27 13:57:58;;;;;;;6.00;2.70;;;6.70;99.90;;;;;;5043427;28;20207;-67
2022/12/27 14:00:32;;;;;;;6.77;2.80;;;6.60;99.90;;;;;;5046835;28;20841;-67
2022/12/27 14:03:47;;;;;;;5.30;2.00;;;6.50;99.90;;;;;;5042479;28;20217;-68
2022/12/27 14:06:34;;;;;;;6.47;2.13;;;6.50;99.90;;;;;;5038348;28;20218;-68
2022/12/27 14:09:09;;;;;;;8.17;2.60;;;6.40;99.90;;;;;;5027646;28;20207;-68
2022/12/27 14:12:06;;;;;;;9.17;2.93;;;6.40;99.90;;;;;;5025605;28;20267;-68
2022/12/27 14:14:35;;;;;;;4.10;2.10;;;6.30;99.90;;;;;;5026812;28;20673;-68
2022/12/27 14:17:21;;;;;;;2.97;2.57;;;6.20;99.90;;;;;;5029345;28;20202;-67
2022/12/27 14:20:14;;;;;;;11.47;2.53;;;6.20;99.90;;;;;;5041255;28;20248;-66
2022/12/27 14:23:17;;;;;;;15.87;3.13;;;6.20;99.90;;;;;;5041167;28;20210;-66
2022/12/27 14:26:17;;;;;;;6.73;2.73;;;6.20;99.90;;;;;;5046530;28;20253;-68
2022/12/27 14:28:43;;;;;;;5.27;2.20;;;6.30;99.90;;;;;;5045247;28;20200;-68
2022/12/27 14:31:42;;;;;;;6.87;2.30;;;6.30;99.90;;;;;;5047459;28;20212;-67
2022/12/27 14:34:51;;;;;;;6.73;3.07;;;6.20;99.90;;;;;;5038641;28;20222;-67
2022/12/27 14:37:56;;;;;;;4.97;2.13;;;6.20;99.90;;;;;;5044002;28;20255;-69
2022/12/27 14:41:15;;;;;;;5.93;2.00;;;6.20;99.90;;;;;;5045053;28;20510;-67
2022/12/27 14:44:18;;;;;;;4.00;2.10;;;6.10;99.90;;;;;;5046326;28;20207;-67
2022/12/27 14:47:19;;;;;;;5.27;2.40;;;6.00;99.90;;;;;;5025593;28;20703;-67
2022/12/27 14:50:20;;;;;;;4.27;2.30;;;6.00;99.90;;;;;;5027085;28;20691;-69
2022/12/27 14:53:33;;;;;;;4.43;2.20;;;5.80;99.90;;;;;;5028023;28;20256;-68
2022/12/27 14:56:14;;;;;;;4.57;2.30;;;5.70;99.90;;;;;;5011253;28;20295;-68
2022/12/27 14:58:45;;;;;;;5.30;2.90;;;5.70;99.90;;;;;;5024435;28;20235;-67
2022/12/27 15:01:30;;;;;;;4.10;2.07;;;5.70;99.90;;;;;;5025648;28;20653;-67
2022/12/27 15:04:09;;;;;;;9.73;2.10;;;5.60;99.90;;;;;;5027846;28;20758;-66
2022/12/27 15:06:55;;;;;;;7.90;2.70;;;5.60;99.90;;;;;;5025107;28;20207;-67
2022/12/27 15:09:50;;;;;;;7.13;2.70;;;5.60;99.90;;;;;;5023521;28;20882;-67
2022/12/27 15:12:42;;;;;;;3.57;2.57;;;5.60;99.90;;;;;;5024085;28;20211;-68
2022/12/27 15:15:22;;;;;;;4.13;2.50;;;5.60;99.90;;;;;;5024641;28;20265;-67
2022/12/27 15:18:25;;;;;;;7.53;3.00;;;5.50;99.90;;;;;;5023788;28;20207;-68
2022/12/27 15:21:20;;;;;;;4.07;2.83;;;5.50;99.90;;;;;;5023070;28;20927;-68
2022/12/27 15:24:19;;;;;;;7.13;2.43;;;5.50;99.90;;;;;;5026727;28;20207;-68